La Sarre, Canada
Current Conditions -  °F | °C
As of 9:00 PM on Friday 24 Oct 2014 (Local Time) from CYUY Reporting Station
Overcast Overcast  
Wind Chill:   Ceiling: 2400
Heat Index:   Visibility: 15mi
Dew Point:   Wind: 7mph
Humidity: 62%   Direction: 190°S
Pressure: 29.8"   Gusts: NA
Location:  48.8°N, 79.2°W
Report Text: CYUY 250100Z 19006KT 15SM OVC024 08/01 A2980 RMK SC8 SLP106
Loading
Personal Weather Stations






























Interactive Weather Map
Tropical Storm Tracking
New forecast layout! Learn more

10-Day Weather Forecast

Advertisements
Track Severe Weather on mobile